createdAt,value
2023-02-01T00:00:17.827Z,48.73
2023-02-01T00:02:45.326Z,49.50
2023-02-01T00:05:12.571Z,49.26
2023-02-01T00:07:39.753Z,48.55
2023-02-01T00:10:07.427Z,48.39
2023-02-01T00:12:34.607Z,48.58
2023-02-01T00:15:01.779Z,48.38
2023-02-01T00:17:29.256Z,48.02
2023-02-01T00:19:56.446Z,48.17
2023-02-01T00:22:23.665Z,47.94
2023-02-01T00:24:51.050Z,47.71
2023-02-01T00:27:21.315Z,48.16
2023-02-01T00:29:48.528Z,47.62
2023-02-01T00:32:15.966Z,47.27
2023-02-01T00:34:43.151Z,47.17
2023-02-01T00:37:10.322Z,46.53
2023-02-01T00:39:37.942Z,46.30
2023-02-01T00:42:05.189Z,46.91
2023-02-01T00:44:35.339Z,46.33
2023-02-01T00:47:02.802Z,46.93
2023-02-01T00:49:30.118Z,47.91
2023-02-01T00:51:57.367Z,48.62
2023-02-01T00:54:25.288Z,48.76
2023-02-01T00:56:52.617Z,48.64
2023-02-01T00:59:19.789Z,50.43
2023-02-01T01:01:47.287Z,50.48
2023-02-01T01:04:14.518Z,51.10
2023-02-01T01:06:41.916Z,50.89
2023-02-01T01:09:09.329Z,50.18
2023-02-01T01:11:37.608Z,50.04
2023-02-01T01:14:05.977Z,51.18
2023-02-01T01:16:33.430Z,52.98
2023-02-01T01:19:00.854Z,52.35
2023-02-01T01:21:28.202Z,53.55
2023-02-01T01:23:55.851Z,54.60
2023-02-01T01:26:24.061Z,55.04
2023-02-01T01:28:51.379Z,54.65
2023-02-01T01:31:19.763Z,55.85
2023-02-01T01:33:53.915Z,56.20
2023-02-01T01:36:21.910Z,55.62
2023-02-01T01:38:49.373Z,55.82
2023-02-01T01:41:21.383Z,55.77
2023-02-01T01:44:02.756Z,56.00
2023-02-01T01:46:31.271Z,56.16
2023-02-01T01:49:09.186Z,55.79
2023-02-01T01:51:38.026Z,55.50
2023-02-01T01:54:19.435Z,55.76
2023-02-01T01:56:50.651Z,55.57
2023-02-01T01:59:18.199Z,55.36
2023-02-01T02:01:45.394Z,55.14
2023-02-01T02:04:12.881Z,58.18
2023-02-01T02:06:40.046Z,53.95
2023-02-01T02:09:07.729Z,54.46
2023-02-01T02:11:35.290Z,54.24
2023-02-01T02:14:02.450Z,54.95
2023-02-01T02:16:46.511Z,54.46
2023-02-01T02:19:20.018Z,54.48
2023-02-01T02:22:05.751Z,55.62
2023-02-01T02:24:45.035Z,54.81
2023-02-01T02:27:25.915Z,53.64
2023-02-01T02:30:12.491Z,55.29
2023-02-01T02:33:00.540Z,54.37
2023-02-01T02:35:28.056Z,54.36
2023-02-01T02:38:07.979Z,53.73
2023-02-01T02:40:42.944Z,55.31
2023-02-01T02:43:29.978Z,55.19
2023-02-01T02:46:34.997Z,55.23
2023-02-01T02:49:05.349Z,55.26
2023-02-01T02:51:55.521Z,55.86
2023-02-01T02:54:42.681Z,55.99
2023-02-01T02:57:29.379Z,55.70
2023-02-01T03:00:16.357Z,56.31
2023-02-01T03:03:02.772Z,56.78
2023-02-01T03:05:33.419Z,56.07
2023-02-01T03:08:05.437Z,56.33
2023-02-01T03:10:50.777Z,56.27
2023-02-01T03:13:20.962Z,55.49
2023-02-01T03:16:05.874Z,55.48
2023-02-01T03:18:36.317Z,55.07
2023-02-01T03:21:04.635Z,55.78
2023-02-01T03:23:32.597Z,55.89
2023-02-01T03:26:00.123Z,55.91
2023-02-01T03:28:27.406Z,56.28
2023-02-01T03:30:55.919Z,55.65
2023-02-01T03:33:24.406Z,54.96
2023-02-01T03:35:55.684Z,55.54
2023-02-01T03:38:28.885Z,54.87
2023-02-01T03:41:10.137Z,56.00
2023-02-01T03:43:49.271Z,56.64
2023-02-01T03:46:18.905Z,56.18
2023-02-01T03:48:46.092Z,54.95
2023-02-01T03:51:13.462Z,54.81
2023-02-01T03:53:41.084Z,54.91
2023-02-01T03:56:08.260Z,55.40
2023-02-01T03:58:36.414Z,53.89
2023-02-01T04:01:03.981Z,55.21
2023-02-01T04:03:33.163Z,55.71
2023-02-01T04:06:02.615Z,54.47
2023-02-01T04:08:30.025Z,54.46
2023-02-01T04:10:57.480Z,53.41
2023-02-01T04:13:24.663Z,53.55
2023-02-01T04:15:51.864Z,53.42
2023-02-01T04:18:19.648Z,54.10
2023-02-01T04:20:47.063Z,53.95
2023-02-01T04:23:16.600Z,53.72
2023-02-01T04:25:44.044Z,53.71
2023-02-01T04:28:11.270Z,54.06
2023-02-01T04:30:38.545Z,53.19
2023-02-01T04:33:09.114Z,52.89
2023-02-01T04:35:36.433Z,51.93
2023-02-01T04:38:03.715Z,53.72
2023-02-01T04:40:31.120Z,52.39
2023-02-01T04:42:58.431Z,52.01
2023-02-01T04:45:25.606Z,53.77
2023-02-01T04:47:53.183Z,52.41
2023-02-01T04:50:21.773Z,53.50
2023-02-01T04:52:49.195Z,55.41
2023-02-01T04:55:16.660Z,54.03
2023-02-01T04:57:43.836Z,53.49
2023-02-01T05:00:11.373Z,53.94
2023-02-01T05:02:38.891Z,54.73
2023-02-01T05:05:06.242Z,53.85
2023-02-01T05:07:33.428Z,55.29
2023-02-01T05:10:00.825Z,56.22
2023-02-01T05:12:46.547Z,56.34
2023-02-01T05:15:14.021Z,56.08
2023-02-01T05:17:41.346Z,56.27
2023-02-01T05:20:09.394Z,58.19
2023-02-01T05:22:39.875Z,57.13
2023-02-01T05:25:08.400Z,57.23
2023-02-01T05:27:35.715Z,55.97
2023-02-01T05:30:06.545Z,57.05
2023-02-01T05:32:33.951Z,56.99
2023-02-01T05:35:01.477Z,55.75
2023-02-01T05:37:29.086Z,55.91
2023-02-01T05:39:56.262Z,56.37
2023-02-01T05:42:23.425Z,56.37
2023-02-01T05:44:50.900Z,56.17
2023-02-01T05:47:18.083Z,55.72
2023-02-01T05:49:45.226Z,56.02
2023-02-01T05:52:12.947Z,56.19
2023-02-01T05:54:40.181Z,55.37
2023-02-01T05:57:07.401Z,56.51
2023-02-01T05:59:35.336Z,56.08
2023-02-01T06:02:02.496Z,55.98
2023-02-01T06:04:29.938Z,55.23
2023-02-01T06:06:57.156Z,54.93
2023-02-01T06:09:24.433Z,55.93
2023-02-01T06:11:51.935Z,55.96
2023-02-01T06:14:19.210Z,54.54
2023-02-01T06:16:47.562Z,55.28
2023-02-01T06:19:15.009Z,55.10
2023-02-01T06:21:42.228Z,55.51
2023-02-01T06:24:09.618Z,56.35
2023-02-01T06:26:37.047Z,54.39
2023-02-01T06:29:04.318Z,54.94
2023-02-01T06:31:33.057Z,55.47
2023-02-01T06:34:00.541Z,54.30
2023-02-01T06:36:27.753Z,56.64
2023-02-01T06:38:57.470Z,55.76
2023-02-01T06:41:24.980Z,57.25
2023-02-01T06:43:52.493Z,56.36
2023-02-01T06:46:19.684Z,54.55
2023-02-01T06:48:47.304Z,54.03
2023-02-01T06:51:32.620Z,53.07
2023-02-01T06:54:00.087Z,55.07
2023-02-01T06:56:27.536Z,54.04
2023-02-01T06:58:54.774Z,52.84
2023-02-01T07:01:22.206Z,52.49
2023-02-01T07:03:52.377Z,51.13
2023-02-01T07:06:19.746Z,51.27
2023-02-01T07:08:47.166Z,50.90
2023-02-01T07:11:14.656Z,49.56
2023-02-01T07:13:41.846Z,49.63
2023-02-01T07:16:13.434Z,50.00
2023-02-01T07:18:40.777Z,49.03
2023-02-01T07:21:08.009Z,47.16
2023-02-01T07:23:35.529Z,47.22
2023-02-01T07:26:04.220Z,47.57
2023-02-01T07:28:32.272Z,46.27
2023-02-01T07:31:03.693Z,46.07
2023-02-01T07:33:30.897Z,45.70
2023-02-01T07:35:58.048Z,44.06
2023-02-01T07:38:25.504Z,45.13
2023-02-01T07:40:52.708Z,42.76
2023-02-01T07:43:19.869Z,44.38
2023-02-01T07:45:51.423Z,42.01
2023-02-01T07:48:19.197Z,42.60
2023-02-01T07:50:46.607Z,43.40
2023-02-01T07:53:13.769Z,44.43
2023-02-01T07:55:41.452Z,44.11
2023-02-01T07:58:08.869Z,44.22
2023-02-01T08:00:54.792Z,43.49
2023-02-01T08:03:22.462Z,44.61
2023-02-01T08:05:49.638Z,45.33
2023-02-01T08:08:17.074Z,45.75
2023-02-01T08:10:44.670Z,47.85
2023-02-01T08:13:11.846Z,45.62
2023-02-01T08:15:39.001Z,46.50
2023-02-01T08:18:06.768Z,45.16
2023-02-01T08:20:36.415Z,45.37
2023-02-01T08:23:03.829Z,44.96
2023-02-01T08:25:31.430Z,45.16
2023-02-01T08:27:58.613Z,43.67
2023-02-01T08:30:26.131Z,43.60
2023-02-01T08:32:53.718Z,45.47
2023-02-01T08:35:22.299Z,45.88
2023-02-01T08:37:51.580Z,45.09
2023-02-01T08:40:20.015Z,45.14
2023-02-01T08:42:53.164Z,45.92
2023-02-01T08:45:21.010Z,45.45
2023-02-01T08:47:48.566Z,45.13
2023-02-01T08:50:15.753Z,44.64
2023-02-01T08:52:43.387Z,44.39
2023-02-01T08:55:10.674Z,44.40
2023-02-01T08:57:37.884Z,42.94
2023-02-01T09:00:06.196Z,42.62
2023-02-01T09:02:33.559Z,42.06
2023-02-01T09:05:00.745Z,41.01
2023-02-01T09:07:28.168Z,41.58
2023-02-01T09:09:57.345Z,41.60
2023-02-01T09:12:24.519Z,40.81
2023-02-01T09:14:51.960Z,40.90
2023-02-01T09:17:19.199Z,41.29
2023-02-01T09:19:46.384Z,39.97
2023-02-01T09:22:13.804Z,40.20
2023-02-01T09:24:41.019Z,41.57
2023-02-01T09:27:08.201Z,41.20
2023-02-01T09:29:35.658Z,41.31
2023-02-01T09:32:04.605Z,42.95
2023-02-01T09:34:32.054Z,43.32
2023-02-01T09:36:59.533Z,41.84
2023-02-01T09:39:26.937Z,43.67
2023-02-01T09:41:58.386Z,43.86
2023-02-01T09:44:48.710Z,42.72
2023-02-01T09:47:16.703Z,43.88
2023-02-01T09:49:49.996Z,46.63
2023-02-01T09:52:17.189Z,46.27
2023-02-01T09:54:53.252Z,46.95
2023-02-01T09:57:21.978Z,47.08
2023-02-01T09:59:54.049Z,46.77
2023-02-01T10:02:25.592Z,49.26
2023-02-01T10:04:55.152Z,47.87
2023-02-01T10:07:34.659Z,47.61
2023-02-01T10:10:20.384Z,45.81
2023-02-01T10:13:00.186Z,44.15
2023-02-01T10:15:33.460Z,46.20
2023-02-01T10:18:03.694Z,45.27
2023-02-01T10:20:45.673Z,45.63
2023-02-01T10:23:33.427Z,45.39
2023-02-01T10:26:05.868Z,46.40
2023-02-01T10:28:33.872Z,45.63
2023-02-01T10:31:01.095Z,45.65
2023-02-01T10:33:33.807Z,45.37
2023-02-01T10:36:12.095Z,45.09
2023-02-01T10:38:39.894Z,42.47
2023-02-01T10:41:13.333Z,42.95
2023-02-01T10:43:40.926Z,44.13
2023-02-01T10:46:08.319Z,45.03
2023-02-01T10:48:35.728Z,44.43
2023-02-01T10:51:23.422Z,43.96
2023-02-01T10:53:53.433Z,44.98
2023-02-01T10:56:28.137Z,44.68
2023-02-01T10:59:05.829Z,47.83
2023-02-01T11:01:40.632Z,46.07
2023-02-01T11:04:17.666Z,46.06
2023-02-01T11:06:45.697Z,45.32
2023-02-01T11:09:17.837Z,45.10
2023-02-01T11:11:48.342Z,44.86
2023-02-01T11:14:35.705Z,44.35
2023-02-01T11:17:13.522Z,45.29
2023-02-01T11:19:44.963Z,45.61
2023-02-01T11:22:12.636Z,46.30
2023-02-01T11:24:40.181Z,46.59
2023-02-01T11:27:16.036Z,47.35
2023-02-01T11:29:53.365Z,46.94
2023-02-01T11:32:21.412Z,48.05
2023-02-01T11:34:49.495Z,48.77
2023-02-01T11:37:27.524Z,48.49
2023-02-01T11:39:58.715Z,48.34
2023-02-01T11:42:27.067Z,48.92
2023-02-01T11:45:08.718Z,49.56
2023-02-01T11:47:42.172Z,49.71
2023-02-01T11:50:19.264Z,48.44
2023-02-01T11:53:04.103Z,48.72
2023-02-01T11:55:34.097Z,48.46
2023-02-01T11:58:07.645Z,49.35
2023-02-01T12:00:48.179Z,50.57
2023-02-01T12:03:24.870Z,52.13
2023-02-01T12:05:58.758Z,53.92
2023-02-01T12:08:46.014Z,53.60
2023-02-01T12:11:16.672Z,54.28
2023-02-01T12:13:59.293Z,55.51
2023-02-01T12:16:45.359Z,58.83
2023-02-01T12:19:24.957Z,58.97
2023-02-01T12:21:52.093Z,60.97
2023-02-01T12:24:19.521Z,61.95
2023-02-01T12:26:46.783Z,63.71
2023-02-01T12:29:32.653Z,64.04
2023-02-01T12:32:14.393Z,63.04
2023-02-01T12:35:00.236Z,63.31
2023-02-01T12:37:35.114Z,62.96
2023-02-01T12:40:02.251Z,63.90
2023-02-01T12:42:33.967Z,64.15
2023-02-01T12:45:03.778Z,66.00
2023-02-01T12:47:36.925Z,66.98
2023-02-01T12:50:14.113Z,64.97
2023-02-01T12:52:51.476Z,65.77
2023-02-01T12:55:23.996Z,65.41
2023-02-01T12:57:54.244Z,64.25
2023-02-01T13:00:36.676Z,63.31
2023-02-01T13:03:04.089Z,62.41
2023-02-01T13:05:46.381Z,61.56
2023-02-01T13:08:15.693Z,61.60
2023-02-01T13:10:43.989Z,61.28
2023-02-01T13:13:23.978Z,62.13
2023-02-01T13:16:10.315Z,63.51
2023-02-01T13:18:38.575Z,62.06
2023-02-01T13:21:10.131Z,61.19
2023-02-01T13:23:41.294Z,62.19
2023-02-01T13:26:09.120Z,63.15
2023-02-01T13:28:42.313Z,64.11
2023-02-01T13:31:18.872Z,65.39
2023-02-01T13:34:01.994Z,67.45
2023-02-01T13:36:38.410Z,68.24
2023-02-01T13:39:21.077Z,67.87
2023-02-01T13:41:56.773Z,68.24
2023-02-01T13:44:27.786Z,69.39
2023-02-01T13:46:56.297Z,69.76
2023-02-01T13:49:24.660Z,68.25
2023-02-01T13:51:53.048Z,67.02
2023-02-01T13:54:26.613Z,66.17
2023-02-01T13:56:53.948Z,65.21
2023-02-01T13:59:38.412Z,64.23
2023-02-01T14:02:32.135Z,63.53
2023-02-01T14:04:59.594Z,63.44
2023-02-01T14:07:27.009Z,61.49
2023-02-01T14:09:54.621Z,60.60
2023-02-01T14:12:40.653Z,60.01
2023-02-01T14:15:18.872Z,59.79
2023-02-01T14:17:46.438Z,58.02
2023-02-01T14:20:32.614Z,58.27
2023-02-01T14:23:10.298Z,57.13
2023-02-01T14:25:37.477Z,57.42
2023-02-01T14:28:11.206Z,56.35
2023-02-01T14:30:48.805Z,57.19
2023-02-01T14:33:19.981Z,58.60
2023-02-01T14:35:55.816Z,58.09
2023-02-01T14:38:23.729Z,58.86
2023-02-01T14:40:50.923Z,58.45
2023-02-01T14:43:26.558Z,57.77
2023-02-01T14:46:01.318Z,58.55
2023-02-01T14:48:33.198Z,57.79
2023-02-01T14:51:00.768Z,59.10
2023-02-01T14:53:34.471Z,61.04
2023-02-01T14:56:07.178Z,59.52
2023-02-01T14:58:37.646Z,58.87
2023-02-01T15:01:06.693Z,57.27
2023-02-01T15:03:49.416Z,57.06
2023-02-01T15:06:22.540Z,56.57
2023-02-01T15:08:49.780Z,58.57
2023-02-01T15:11:17.533Z,57.16
2023-02-01T15:13:53.600Z,55.56
2023-02-01T15:16:23.197Z,56.35
2023-02-01T15:18:50.843Z,56.02
2023-02-01T15:21:28.536Z,55.03
2023-02-01T15:24:20.363Z,53.94
2023-02-01T15:26:47.606Z,53.20
2023-02-01T15:29:15.323Z,52.85
2023-02-01T15:31:47.697Z,54.59
2023-02-01T15:34:15.544Z,52.88
2023-02-01T15:36:53.557Z,52.63
2023-02-01T15:39:31.642Z,52.80
2023-02-01T15:42:02.004Z,52.42
2023-02-01T15:44:38.483Z,52.74
2023-02-01T15:47:07.352Z,54.55
2023-02-01T15:49:38.112Z,53.15
2023-02-01T15:52:09.660Z,54.45
2023-02-01T15:54:45.341Z,54.29
2023-02-01T15:57:12.548Z,53.88
2023-02-01T15:59:43.588Z,53.80
2023-02-01T16:02:30.027Z,53.68
2023-02-01T16:04:57.544Z,54.69
2023-02-01T16:07:29.509Z,55.17
2023-02-01T16:09:58.110Z,56.51
2023-02-01T16:12:32.679Z,55.94
2023-02-01T16:14:59.910Z,55.58
2023-02-01T16:17:27.473Z,55.67
2023-02-01T16:19:54.760Z,56.18
2023-02-01T16:22:21.953Z,53.73
2023-02-01T16:24:49.581Z,53.68
2023-02-01T16:27:16.913Z,52.72
2023-02-01T16:29:44.060Z,53.74
2023-02-01T16:32:14.293Z,53.66
2023-02-01T16:34:41.547Z,52.16
2023-02-01T16:37:10.801Z,51.85
2023-02-01T16:39:38.329Z,51.41
2023-02-01T16:42:12.966Z,50.64
2023-02-01T16:44:40.518Z,50.04
2023-02-01T16:47:25.644Z,50.50
2023-02-01T16:49:53.122Z,51.77
2023-02-01T16:52:24.159Z,52.55
2023-02-01T16:54:51.549Z,51.49
2023-02-01T16:57:20.749Z,50.99
2023-02-01T16:59:48.472Z,51.19
2023-02-01T17:02:20.310Z,52.05
2023-02-01T17:04:49.612Z,52.29
2023-02-01T17:07:18.031Z,52.86
2023-02-01T17:09:45.759Z,53.38
2023-02-01T17:12:19.088Z,53.58
2023-02-01T17:14:46.289Z,54.58
2023-02-01T17:17:14.001Z,52.69
2023-02-01T17:19:41.284Z,53.33
2023-02-01T17:22:08.707Z,52.55
2023-02-01T17:24:48.274Z,52.71
2023-02-01T17:27:17.269Z,53.15
2023-02-01T17:29:47.074Z,52.23
2023-02-01T17:32:19.386Z,51.69
2023-02-01T17:34:47.463Z,52.01
2023-02-01T17:37:19.399Z,51.83
2023-02-01T17:39:56.077Z,52.09
2023-02-01T17:42:27.361Z,52.76
2023-02-01T17:44:59.243Z,54.01
2023-02-01T17:47:26.516Z,54.28
2023-02-01T17:49:56.812Z,53.91
2023-02-01T17:52:25.115Z,54.49
2023-02-01T17:54:54.124Z,54.50
2023-02-01T17:57:21.838Z,54.49
2023-02-01T17:59:49.257Z,55.92
2023-02-01T18:02:18.254Z,55.56
2023-02-01T18:04:45.855Z,55.94
2023-02-01T18:07:13.217Z,55.20
2023-02-01T18:09:41.408Z,54.66
2023-02-01T18:12:36.616Z,55.28
2023-02-01T18:15:18.095Z,55.87
2023-02-01T18:17:45.749Z,54.60
2023-02-01T18:20:15.870Z,55.26
2023-02-01T18:22:44.027Z,56.86
2023-02-01T18:25:16.852Z,54.99
2023-02-01T18:27:44.496Z,53.42
2023-02-01T18:30:12.735Z,53.13
2023-02-01T18:32:40.210Z,52.87
2023-02-01T18:35:25.147Z,53.57
2023-02-01T18:37:53.503Z,53.32
2023-02-01T18:40:29.179Z,53.50
2023-02-01T18:42:58.138Z,52.90
2023-02-01T18:45:25.830Z,53.09
2023-02-01T18:47:53.472Z,53.20
2023-02-01T18:50:21.357Z,51.68
2023-02-01T18:52:48.797Z,51.97
2023-02-01T18:55:16.000Z,51.92
2023-02-01T18:57:43.752Z,51.20
2023-02-01T19:00:11.613Z,52.03
2023-02-01T19:02:39.421Z,51.64
2023-02-01T19:05:08.184Z,51.85
2023-02-01T19:07:35.932Z,51.29
2023-02-01T19:10:06.306Z,52.13
2023-02-01T19:12:34.206Z,51.92
2023-02-01T19:15:01.688Z,51.30
2023-02-01T19:17:29.671Z,50.80
2023-02-01T19:19:58.736Z,51.49
2023-02-01T19:22:26.603Z,52.17
2023-02-01T19:24:54.776Z,53.65
2023-02-01T19:27:22.704Z,54.21
2023-02-01T19:29:50.070Z,53.79
2023-02-01T19:32:17.743Z,52.35
2023-02-01T19:34:45.387Z,51.77
2023-02-01T19:37:12.776Z,52.12
2023-02-01T19:39:41.892Z,53.77
2023-02-01T19:42:09.593Z,52.59
2023-02-01T19:44:38.286Z,53.49
2023-02-01T19:47:05.838Z,52.86
2023-02-01T19:49:33.487Z,53.39
2023-02-01T19:52:00.811Z,51.92
2023-02-01T19:54:28.296Z,51.55
2023-02-01T19:56:56.386Z,51.56
2023-02-01T19:59:24.050Z,52.29
2023-02-01T20:01:51.743Z,51.15
2023-02-01T20:04:19.556Z,51.69
2023-02-01T20:06:50.041Z,51.63
2023-02-01T20:09:18.472Z,52.48
2023-02-01T20:11:46.529Z,51.62
2023-02-01T20:14:13.899Z,52.01
2023-02-01T20:16:41.709Z,51.78
2023-02-01T20:19:09.917Z,52.91
2023-02-01T20:21:37.942Z,53.18
2023-02-01T20:24:05.513Z,53.43
2023-02-01T20:26:35.262Z,53.26
2023-02-01T20:29:02.683Z,52.06
2023-02-01T20:31:30.316Z,52.24
2023-02-01T20:33:58.282Z,51.73
2023-02-01T20:36:29.360Z,52.92
2023-02-01T20:38:57.568Z,52.75
2023-02-01T20:41:27.764Z,53.73
2023-02-01T20:43:55.273Z,55.54
2023-02-01T20:46:22.947Z,55.66
2023-02-01T20:48:50.765Z,57.51
2023-02-01T20:51:19.122Z,60.32
2023-02-01T20:53:48.682Z,60.78
2023-02-01T20:56:16.319Z,61.98
2023-02-01T20:58:43.818Z,64.03
2023-02-01T21:01:11.659Z,62.29
2023-02-01T21:03:39.239Z,62.76
2023-02-01T21:06:06.814Z,61.94
2023-02-01T21:08:34.418Z,60.85
2023-02-01T21:11:03.413Z,60.49
2023-02-01T21:13:31.931Z,60.45
2023-02-01T21:15:59.398Z,61.10
2023-02-01T21:18:28.243Z,60.62
2023-02-01T21:20:55.577Z,59.47
2023-02-01T21:23:22.971Z,60.04
2023-02-01T21:25:50.370Z,58.59
2023-02-01T21:28:18.148Z,58.59
2023-02-01T21:30:45.357Z,58.65
2023-02-01T21:33:12.787Z,60.35
2023-02-01T21:35:40.428Z,59.57
2023-02-01T21:38:09.551Z,59.49
2023-02-01T21:40:37.209Z,60.26
2023-02-01T21:43:04.348Z,59.77
2023-02-01T21:45:31.655Z,60.42
2023-02-01T21:47:59.101Z,59.82
2023-02-01T21:50:26.296Z,61.60
2023-02-01T21:52:53.565Z,60.27
2023-02-01T21:55:21.029Z,60.69
2023-02-01T21:57:51.707Z,61.76
2023-02-01T22:00:19.063Z,61.55
2023-02-01T22:02:46.549Z,62.48
2023-02-01T22:05:14.800Z,61.24
2023-02-01T22:07:41.982Z,60.36
2023-02-01T22:10:10.155Z,59.77
2023-02-01T22:12:37.326Z,60.43
2023-02-01T22:15:04.658Z,59.18
2023-02-01T22:17:32.057Z,58.27
2023-02-01T22:19:59.176Z,57.84
2023-02-01T22:22:26.390Z,58.25
2023-02-01T22:24:54.495Z,57.96
2023-02-01T22:27:21.633Z,57.55
2023-02-01T22:30:00.709Z,57.46
2023-02-01T22:32:27.885Z,57.62
2023-02-01T22:34:56.055Z,57.59
2023-02-01T22:37:23.558Z,57.03
2023-02-01T22:39:50.721Z,56.54
2023-02-01T22:42:17.889Z,57.33
2023-02-01T22:44:45.376Z,56.67
2023-02-01T22:47:12.563Z,57.08
2023-02-01T22:49:39.727Z,57.11
2023-02-01T22:52:07.210Z,57.70
2023-02-01T22:54:34.511Z,57.47
2023-02-01T22:57:01.668Z,58.71
2023-02-01T22:59:29.111Z,58.46
2023-02-01T23:01:56.309Z,58.88
2023-02-01T23:04:23.447Z,58.23
2023-02-01T23:06:54.000Z,58.18
2023-02-01T23:09:22.200Z,58.95
2023-02-01T23:11:49.575Z,58.85
2023-02-01T23:14:17.108Z,59.94
2023-02-01T23:16:44.565Z,57.93
2023-02-01T23:19:11.979Z,58.37
2023-02-01T23:21:39.455Z,58.23
2023-02-01T23:24:08.216Z,59.60
2023-02-01T23:26:35.433Z,60.23
2023-02-01T23:29:03.514Z,59.68
2023-02-01T23:31:31.932Z,58.95
2023-02-01T23:33:59.873Z,60.57
2023-02-01T23:36:27.767Z,60.09
2023-02-01T23:38:55.187Z,60.84
2023-02-01T23:41:23.050Z,59.61
2023-02-01T23:43:59.893Z,60.31
2023-02-01T23:46:32.637Z,58.97
2023-02-01T23:49:00.627Z,59.97
2023-02-01T23:51:27.823Z,59.49
2023-02-01T23:53:55.183Z,58.12
2023-02-01T23:56:35.729Z,58.22
2023-02-01T23:59:07.868Z,59.58
